Time;durP1;ratioP1;P1;durP2;ratioP2;P2;SDS_P1;SDS_P2;PMS_P1;PMS_P2;Temp;Humidity;BMP_temperature;BMP_pressure;BME280_temperature;BME280_humidity;BME280_pressure;Samples;Min_cycle;Max_cycle;Signal;HPM_P1;HPM_P2
2023/09/13 05:33:09;;;;;;;4.83;4.43;;;25.30;67.80;;;;;;5080088;27;20556;-73
2023/09/13 05:35:56;;;;;;;3.90;3.60;;;25.30;68.90;;;;;;5059801;28;20827;-73
2023/09/13 05:38:43;;;;;;;4.30;3.90;;;25.30;68.90;;;;;;5055116;28;20858;-73
2023/09/13 05:41:30;;;;;;;5.30;4.80;;;25.30;68.80;;;;;;5066136;28;20476;-73
2023/09/13 05:44:20;;;;;;;5.17;4.77;;;25.30;70.20;;;;;;5047664;28;20445;-73
2023/09/13 05:47:08;;;;;;;5.83;5.30;;;25.30;68.90;;;;;;5051104;28;20466;-68
2023/09/13 05:49:56;;;;;;;5.13;4.63;;;25.30;68.90;;;;;;5050882;28;20507;-68
2023/09/13 05:52:43;;;;;;;5.30;4.90;;;25.30;68.90;;;;;;5051413;28;20457;-68
2023/09/13 05:55:30;;;;;;;4.53;4.07;;;25.30;68.90;;;;;;5065025;28;20469;-68
2023/09/13 05:58:18;;;;;;;6.83;4.60;;;25.30;68.90;;;;;;5049410;28;20864;-73
2023/09/13 06:01:05;;;;;;;4.93;4.53;;;25.30;68.90;;;;;;5052715;28;20528;-71
2023/09/13 06:03:52;;;;;;;4.27;3.87;;;25.30;68.90;;;;;;5050704;28;20585;-72
2023/09/13 06:06:41;;;;;;;4.30;3.90;;;25.30;68.90;;;;;;5047129;28;20486;-72
2023/09/13 06:09:29;;;;;;;4.77;4.37;;;25.30;68.90;;;;;;5047374;28;20509;-73
2023/09/13 06:12:16;;;;;;;5.30;4.90;;;25.30;68.90;;;;;;5049617;28;20966;-73
2023/09/13 06:15:02;;;;;;;4.20;3.90;;;25.30;68.90;;;;;;5047045;28;20457;-72
2023/09/13 06:17:51;;;;;;;4.87;4.37;;;25.30;68.90;;;;;;5044482;28;20439;-73
2023/09/13 06:20:38;;;;;;;4.10;3.80;;;25.30;68.80;;;;;;5050087;28;21027;-73
2023/09/13 06:23:37;;;;;;;4.90;4.50;;;25.30;68.90;;;;;;5048712;28;20442;-72
2023/09/13 06:26:25;;;;;;;4.97;4.47;;;25.30;68.80;;;;;;5048520;28;20473;-71
2023/09/13 06:29:12;;;;;;;4.60;4.20;;;25.20;68.80;;;;;;5055626;28;20461;-72
2023/09/13 06:31:59;;;;;;;4.10;3.70;;;25.20;68.80;;;;;;5050540;28;21059;-72
2023/09/13 06:34:58;;;;;;;4.37;4.00;;;25.20;68.80;;;;;;5048982;28;20454;-73
2023/09/13 06:37:45;;;;;;;4.00;3.70;;;25.20;68.80;;;;;;5043248;28;20445;-71
2023/09/13 06:40:37;;;;;;;5.10;4.27;;;25.20;68.80;;;;;;5045470;28;20462;-72
2023/09/13 06:43:25;;;;;;;4.57;4.17;;;25.20;68.80;;;;;;5042423;28;20478;-71
2023/09/13 06:46:14;;;;;;;6.50;4.43;;;25.20;68.80;;;;;;5026777;28;20594;-71
2023/09/13 06:49:03;;;;;;;4.70;4.20;;;25.20;68.80;;;;;;5036790;28;20490;-72
2023/09/13 06:51:51;;;;;;;4.30;3.90;;;25.20;68.80;;;;;;5028330;28;20732;-72
2023/09/13 06:54:40;;;;;;;4.37;4.07;;;25.20;68.80;;;;;;5031821;28;20448;-73
2023/09/13 06:57:31;;;;;;;5.10;4.70;;;25.20;68.80;;;;;;5041940;28;20430;-73
2023/09/13 07:00:19;;;;;;;5.13;4.67;;;25.20;70.00;;;;;;5027149;28;20482;-72
2023/09/13 07:03:22;;;;;;;3.90;3.60;;;25.10;68.70;;;;;;5027669;28;20435;-72
2023/09/13 07:06:13;;;;;;;4.07;3.77;;;25.10;68.70;;;;;;5033171;28;20473;-73
2023/09/13 07:09:00;;;;;;;17.87;13.50;;;25.10;68.70;;;;;;5031418;28;20547;-73
2023/09/13 07:11:47;;;;;;;15.83;13.27;;;24.90;66.70;;;;;;5043216;28;20560;-73
2023/09/13 07:14:35;;;;;;;13.23;11.93;;;24.70;66.30;;;;;;5039808;28;20470;-73
2023/09/13 07:17:22;;;;;;;10.90;9.73;;;24.50;67.70;;;;;;5031205;28;20328;-73
2023/09/13 07:20:10;;;;;;;11.03;9.30;;;24.50;68.20;;;;;;5030744;28;20469;-73
2023/09/13 07:22:57;;;;;;;9.33;7.43;;;24.60;68.30;;;;;;5039419;28;20586;-73
2023/09/13 07:25:48;;;;;;;8.43;6.87;;;24.70;68.40;;;;;;5029516;28;20521;-73
2023/09/13 07:28:35;;;;;;;8.97;7.43;;;24.80;68.30;;;;;;5028313;28;20490;-73
2023/09/13 07:31:23;;;;;;;8.20;7.20;;;24.80;68.00;;;;;;5027156;28;20467;-73
2023/09/13 07:34:10;;;;;;;11.23;6.53;;;24.90;67.90;;;;;;5029779;28;20431;-73
2023/09/13 07:36:58;;;;;;;7.90;6.33;;;24.90;67.80;;;;;;5032320;28;20459;-71
2023/09/13 07:39:46;;;;;;;6.07;5.47;;;24.90;67.70;;;;;;5036335;28;21029;-72
2023/09/13 07:42:33;;;;;;;7.33;5.77;;;24.90;67.70;;;;;;5034255;28;20760;-72
2023/09/13 07:45:20;;;;;;;6.90;6.20;;;24.90;67.70;;;;;;5031594;28;20419;-73
2023/09/13 07:48:08;;;;;;;6.93;5.10;;;24.90;67.70;;;;;;5030011;28;20533;-73
2023/09/13 07:50:55;;;;;;;8.03;5.83;;;24.90;67.70;;;;;;5035057;28;20835;-73
2023/09/13 07:53:42;;;;;;;6.13;5.47;;;24.90;67.70;;;;;;5038063;28;20845;-73
2023/09/13 07:56:29;;;;;;;6.00;5.33;;;24.90;67.70;;;;;;5033472;28;20559;-73
2023/09/13 07:59:18;;;;;;;5.40;4.90;;;24.90;67.70;;;;;;5034015;28;20859;-72
2023/09/13 08:02:06;;;;;;;5.30;4.90;;;24.90;67.80;;;;;;5029290;28;20461;-73
2023/09/13 08:04:55;;;;;;;6.37;5.40;;;24.90;67.80;;;;;;5043689;28;20438;-73
2023/09/13 08:07:42;;;;;;;6.40;5.83;;;24.90;67.90;;;;;;5043344;28;20562;-73
2023/09/13 08:10:29;;;;;;;6.97;5.30;;;24.90;67.80;;;;;;5032043;28;20469;-73
2023/09/13 08:13:16;;;;;;;5.43;4.93;;;24.90;67.90;;;;;;5038553;28;20755;-72
2023/09/13 08:16:03;;;;;;;5.77;5.27;;;24.90;68.00;;;;;;5032217;28;20475;-72
2023/09/13 08:18:50;;;;;;;7.03;6.37;;;24.90;68.00;;;;;;5030135;28;20486;-73
2023/09/13 08:21:41;;;;;;;8.73;5.53;;;24.90;67.90;;;;;;5031465;28;21270;-73
2023/09/13 08:24:27;;;;;;;6.40;5.80;;;24.90;68.10;;;;;;5035164;28;20521;-73
2023/09/13 08:27:14;;;;;;;5.80;5.20;;;24.90;68.00;;;;;;5027606;28;20469;-71
2023/09/13 08:30:01;;;;;;;6.63;5.90;;;24.90;67.90;;;;;;5040530;28;20462;-72
2023/09/13 08:32:48;;;;;;;7.00;5.93;;;24.90;68.00;;;;;;5026591;28;21010;-73
2023/09/13 08:35:35;;;;;;;5.80;5.23;;;24.90;68.00;;;;;;5034585;28;20527;-72
2023/09/13 08:38:23;;;;;;;6.37;5.70;;;24.90;68.10;;;;;;5027342;28;20471;-73
2023/09/13 08:41:10;;;;;;;4.87;4.47;;;24.90;68.10;;;;;;5025353;28;20990;-72
2023/09/13 08:43:59;;;;;;;6.03;5.53;;;24.90;67.90;;;;;;5029316;28;20823;-73
2023/09/13 08:46:49;;;;;;;5.60;5.10;;;24.90;68.00;;;;;;5030942;28;20526;-73
2023/09/13 08:49:37;;;;;;;5.60;4.30;;;24.80;69.30;;;;;;5032224;28;20470;-72
2023/09/13 08:52:26;;;;;;;5.17;4.50;;;24.80;68.20;;;;;;5043842;28;20437;-73
2023/09/13 08:55:15;;;;;;;4.83;4.30;;;24.80;68.20;;;;;;5026609;28;20982;-72
2023/09/13 08:58:02;;;;;;;4.40;4.00;;;24.80;68.30;;;;;;5028478;28;20566;-73
2023/09/13 09:00:52;;;;;;;4.70;4.30;;;24.80;68.20;;;;;;5025453;28;20514;-73
2023/09/13 09:03:40;;;;;;;4.60;4.20;;;24.80;68.10;;;;;;5029512;28;20439;-73
2023/09/13 09:06:28;;;;;;;6.00;5.47;;;24.80;68.20;;;;;;5023662;28;21014;-72
2023/09/13 09:09:20;;;;;;;4.83;4.43;;;24.80;68.10;;;;;;5032737;28;20450;-73
2023/09/13 09:12:10;;;;;;;5.00;4.50;;;24.80;68.10;;;;;;5029519;28;20474;-73
2023/09/13 09:14:57;;;;;;;4.97;4.37;;;24.80;68.20;;;;;;5032234;28;20848;-72
2023/09/13 09:17:48;;;;;;;5.67;5.17;;;24.80;67.90;;;;;;5033268;28;20501;-73
2023/09/13 09:20:38;;;;;;;5.20;4.67;;;24.80;68.00;;;;;;5026042;28;20475;-73
2023/09/13 09:23:28;;;;;;;5.00;4.50;;;24.80;67.90;;;;;;5028935;28;20514;-73
2023/09/13 09:26:15;;;;;;;5.80;4.70;;;24.80;67.80;;;;;;5025412;28;20834;-73
2023/09/13 09:29:14;;;;;;;4.60;4.20;;;24.80;68.00;;;;;;5031290;28;20830;-72
2023/09/13 09:32:01;;;;;;;4.93;4.50;;;24.80;67.80;;;;;;5030534;28;20853;-73
2023/09/13 09:34:48;;;;;;;5.83;5.33;;;24.80;67.70;;;;;;5043441;28;20518;-73
2023/09/13 09:37:36;;;;;;;4.73;4.33;;;24.80;67.70;;;;;;5027688;28;20516;-73
2023/09/13 09:40:24;;;;;;;5.40;4.40;;;24.80;68.00;;;;;;5030196;28;20517;-72
2023/09/13 09:43:15;;;;;;;5.93;5.33;;;24.80;68.10;;;;;;5032448;28;20502;-72
2023/09/13 09:46:03;;;;;;;5.10;4.53;;;24.80;67.60;;;;;;5030313;28;20601;-72
2023/09/13 09:48:52;;;;;;;4.80;4.40;;;24.80;68.20;;;;;;5029079;28;20826;-73
2023/09/13 09:51:39;;;;;;;6.40;5.10;;;24.80;68.00;;;;;;5033522;28;20623;-74
2023/09/13 09:54:26;;;;;;;6.87;5.50;;;24.80;67.80;;;;;;5031809;28;20455;-74
2023/09/13 09:57:21;;;;;;;5.90;5.40;;;24.80;67.50;;;;;;5030640;28;20602;-73
2023/09/13 10:00:10;;;;;;;5.30;4.83;;;24.80;67.50;;;;;;5031352;28;20462;-73
2023/09/13 10:02:59;;;;;;;5.37;4.30;;;24.70;67.80;;;;;;5026947;28;20493;-69
2023/09/13 10:05:54;;;;;;;5.67;5.17;;;24.70;67.80;;;;;;5045749;28;21176;-69
2023/09/13 10:08:43;;;;;;;5.37;4.87;;;24.70;67.70;;;;;;5025499;28;21037;-68
2023/09/13 10:11:36;;;;;;;4.83;4.37;;;24.70;67.80;;;;;;5032376;28;20482;-69
2023/09/13 10:14:26;;;;;;;4.20;3.80;;;24.70;68.20;;;;;;5028424;28;20466;-68
2023/09/13 10:17:14;;;;;;;4.70;4.30;;;24.70;68.20;;;;;;5028204;28;20455;-69
2023/09/13 10:20:06;;;;;;;4.73;4.33;;;24.70;68.10;;;;;;5037622;28;20486;-69
2023/09/13 10:22:57;;;;;;;4.90;4.40;;;24.70;68.20;;;;;;5035570;28;20454;-69
2023/09/13 10:25:47;;;;;;;4.37;3.97;;;24.70;68.30;;;;;;5033826;28;20525;-72
2023/09/13 10:28:37;;;;;;;4.40;4.00;;;24.70;68.20;;;;;;5033408;28;21009;-73
2023/09/13 10:31:28;;;;;;;4.60;4.20;;;24.70;68.00;;;;;;5031036;28;20466;-73
2023/09/13 10:34:22;;;;;;;4.97;4.30;;;24.70;68.10;;;;;;5039766;28;21026;-73
2023/09/13 10:37:15;;;;;;;4.70;4.30;;;24.70;68.10;;;;;;5028858;28;20517;-72
2023/09/13 10:40:10;;;;;;;4.43;4.03;;;24.70;67.90;;;;;;5028151;28;20455;-73
2023/09/13 10:42:58;;;;;;;4.37;4.03;;;24.70;67.90;;;;;;5032115;28;20427;-74
2023/09/13 10:45:45;;;;;;;4.33;4.00;;;24.70;68.10;;;;;;5034741;28;20486;-74
2023/09/13 10:48:34;;;;;;;4.80;4.30;;;24.70;68.20;;;;;;5029757;28;20478;-72
2023/09/13 10:51:22;;;;;;;5.10;4.47;;;24.70;68.10;;;;;;5032000;28;20490;-72
2023/09/13 10:54:13;;;;;;;5.03;4.63;;;24.70;68.20;;;;;;5037238;28;20521;-72
2023/09/13 10:57:02;;;;;;;5.50;5.10;;;24.70;68.00;;;;;;5030344;28;20479;-73
2023/09/13 10:59:50;;;;;;;9.10;4.93;;;24.70;68.00;;;;;;5027922;28;20447;-72
2023/09/13 11:02:37;;;;;;;4.20;3.60;;;24.60;67.80;;;;;;5028908;28;20451;-73
2023/09/13 11:05:24;;;;;;;4.10;3.80;;;24.60;67.80;;;;;;5028562;28;20801;-73
2023/09/13 11:08:12;;;;;;;5.57;5.00;;;24.60;67.90;;;;;;5037983;28;20989;-72
2023/09/13 11:11:12;;;;;;;4.50;4.10;;;24.60;67.90;;;;;;5030447;28;20471;-73
2023/09/13 11:14:09;;;;;;;4.97;4.47;;;24.60;68.30;;;;;;5038922;28;21124;-72
2023/09/13 11:17:11;;;;;;;4.30;3.90;;;24.60;68.00;;;;;;5032115;28;20614;-73
2023/09/13 11:20:22;;;;;;;4.10;3.70;;;24.60;68.20;;;;;;5039935;28;21033;-72
2023/09/13 11:23:14;;;;;;;4.70;4.20;;;24.60;68.20;;;;;;5027506;28;20915;-74
2023/09/13 11:26:45;;;;;;;4.90;4.40;;;24.60;68.30;;;;;;5026656;28;20642;-68
2023/09/13 11:29:41;;;;;;;8.40;4.50;;;24.60;68.10;;;;;;5038591;28;20461;-67
2023/09/13 11:32:31;;;;;;;4.27;3.87;;;24.60;68.30;;;;;;5036934;28;20783;-68
2023/09/13 11:35:26;;;;;;;4.90;4.50;;;24.60;68.40;;;;;;5038470;28;20835;-69
2023/09/13 11:38:13;;;;;;;4.80;4.33;;;24.60;68.00;;;;;;5039243;28;21057;-69
2023/09/13 11:41:01;;;;;;;4.70;4.30;;;24.60;68.30;;;;;;5036419;28;20562;-69
2023/09/13 11:43:51;;;;;;;5.70;4.33;;;24.60;69.50;;;;;;5035835;28;20982;-69
2023/09/13 11:46:41;;;;;;;4.93;4.37;;;24.60;68.00;;;;;;5047983;28;20490;-66
2023/09/13 11:49:30;;;;;;;3.90;3.60;;;24.60;68.30;;;;;;5032038;28;20501;-69
2023/09/13 11:52:24;;;;;;;4.13;3.83;;;24.60;68.00;;;;;;5032433;28;20479;-69
2023/09/13 11:55:27;;;;;;;5.10;4.60;;;24.60;68.20;;;;;;5040759;28;20466;-69
2023/09/13 11:58:34;;;;;;;4.70;4.30;;;24.60;68.20;;;;;;5027290;28;20513;-68
2023/09/13 12:01:43;;;;;;;10.30;7.70;;;24.50;68.30;;;;;;5034842;28;20478;-69
2023/09/13 12:04:31;;;;;;;9.13;7.68;;;24.40;66.20;;;;;;5036859;28;20447;-68
2023/09/13 12:07:38;;;;;;;9.00;6.47;;;24.20;67.10;;;;;;5042191;28;20214;-68
2023/09/13 12:10:36;;;;;;;8.87;6.20;;;24.20;67.90;;;;;;5038670;28;20462;-69
2023/09/13 12:13:43;;;;;;;5.87;5.27;;;24.30;68.00;;;;;;5029661;28;20458;-69
2023/09/13 12:16:33;;;;;;;7.83;6.00;;;24.30;68.10;;;;;;5040937;28;20459;-69
2023/09/13 12:19:25;;;;;;;5.57;5.00;;;24.40;68.10;;;;;;5029755;28;20462;-69
2023/09/13 12:22:14;;;;;;;6.40;5.47;;;24.40;68.10;;;;;;5026204;28;20463;-68
2023/09/13 12:25:01;;;;;;;5.80;5.23;;;24.50;68.10;;;;;;5037387;28;20807;-68
2023/09/13 12:27:48;;;;;;;5.67;5.17;;;24.50;68.10;;;;;;5031540;28;20604;-67
2023/09/13 12:30:36;;;;;;;5.23;4.73;;;24.50;68.20;;;;;;5039908;28;20545;-67
2023/09/13 12:33:24;;;;;;;5.60;5.07;;;24.50;68.20;;;;;;5034384;28;20431;-68
2023/09/13 12:36:13;;;;;;;4.70;4.23;;;24.50;68.30;;;;;;5034422;28;20848;-68
2023/09/13 12:39:00;;;;;;;4.80;4.30;;;24.50;68.20;;;;;;5028355;28;20443;-68
2023/09/13 12:41:47;;;;;;;4.50;4.10;;;24.50;68.30;;;;;;5030744;28;20475;-68
2023/09/13 12:44:35;;;;;;;4.73;4.33;;;24.50;68.20;;;;;;5031759;28;20939;-68
2023/09/13 12:47:22;;;;;;;4.70;4.23;;;24.50;68.20;;;;;;5033832;28;20467;-69
2023/09/13 12:50:11;;;;;;;5.17;4.67;;;24.50;68.20;;;;;;5025644;28;20574;-69
2023/09/13 12:53:19;;;;;;;5.53;4.77;;;24.40;68.10;;;;;;5028131;28;20561;-67
2023/09/13 12:56:11;;;;;;;5.37;4.40;;;24.50;68.30;;;;;;5030774;28;20466;-68
2023/09/13 12:59:00;;;;;;;4.30;3.93;;;24.50;68.20;;;;;;5036550;28;20502;-67
2023/09/13 13:01:55;;;;;;;3.60;3.30;;;24.50;68.20;;;;;;5033353;28;20486;-69
2023/09/13 13:04:43;;;;;;;5.70;3.80;;;24.50;68.20;;;;;;5032914;28;20920;-67
2023/09/13 13:07:33;;;;;;;4.80;4.40;;;24.40;68.10;;;;;;5037838;28;20563;-67
2023/09/13 13:10:31;;;;;;;4.20;3.80;;;24.40;68.20;;;;;;5034338;28;20479;-69
2023/09/13 13:13:18;;;;;;;4.13;3.77;;;24.40;68.10;;;;;;5044029;28;20422;-68
2023/09/13 13:16:15;;;;;;;4.43;4.03;;;24.40;68.10;;;;;;5040064;28;20474;-68
2023/09/13 13:19:02;;;;;;;4.43;4.00;;;24.40;68.10;;;;;;5028578;28;20556;-68
2023/09/13 13:22:11;;;;;;;3.97;3.57;;;24.40;68.20;;;;;;5029809;28;21096;-68
2023/09/13 13:24:58;;;;;;;4.77;4.20;;;24.40;68.10;;;;;;5028731;28;20438;-68
2023/09/13 13:27:47;;;;;;;3.90;3.50;;;24.40;68.20;;;;;;5029492;28;20469;-67
2023/09/13 13:30:34;;;;;;;3.70;3.30;;;24.40;68.10;;;;;;5040084;28;20593;-73
2023/09/13 13:33:21;;;;;;;4.27;3.87;;;24.40;68.10;;;;;;5033059;28;20781;-74
2023/09/13 13:36:08;;;;;;;3.53;3.23;;;24.40;68.10;;;;;;5038146;28;20840;-72
2023/09/13 13:38:56;;;;;;;4.20;3.87;;;24.40;68.10;;;;;;5033946;28;20427;-73
2023/09/13 13:41:44;;;;;;;3.50;3.20;;;24.40;68.10;;;;;;5033444;28;20479;-72
2023/09/13 13:44:34;;;;;;;3.83;3.10;;;24.30;68.10;;;;;;5029361;28;20918;-72
2023/09/13 13:47:21;;;;;;;4.03;3.73;;;24.30;68.00;;;;;;5024076;28;20463;-72
2023/09/13 13:50:08;;;;;;;3.97;3.57;;;24.30;68.00;;;;;;5026094;28;20478;-72
2023/09/13 13:52:55;;;;;;;3.80;3.20;;;24.30;68.10;;;;;;5037266;28;20465;-73
2023/09/13 13:55:42;;;;;;;3.47;3.17;;;24.30;68.00;;;;;;5033099;28;20871;-72
2023/09/13 13:58:30;;;;;;;3.80;3.30;;;24.30;68.10;;;;;;5034891;28;20823;-68
2023/09/13 14:01:18;;;;;;;4.13;3.20;;;24.30;68.00;;;;;;5041295;28;20471;-69
2023/09/13 14:04:06;;;;;;;4.13;2.60;;;24.30;68.00;;;;;;5038431;28;21027;-68
2023/09/13 14:06:53;;;;;;;4.03;3.63;;;24.30;68.00;;;;;;5029014;28;20454;-67
2023/09/13 14:09:40;;;;;;;3.17;2.87;;;24.40;68.10;;;;;;5035568;28;20684;-69
2023/09/13 14:12:27;;;;;;;3.00;2.80;;;24.30;68.00;;;;;;5028513;28;20442;-69
2023/09/13 14:15:14;;;;;;;2.80;2.60;;;24.30;68.00;;;;;;5039760;28;20430;-70
2023/09/13 14:18:03;;;;;;;3.70;3.20;;;24.30;68.00;;;;;;5033979;28;20505;-68
2023/09/13 14:20:50;;;;;;;3.13;2.83;;;24.30;68.10;;;;;;5043644;28;20866;-69
2023/09/13 14:23:37;;;;;;;3.20;2.50;;;24.30;68.10;;;;;;5033841;28;20801;-68
2023/09/13 14:26:24;;;;;;;2.73;2.53;;;24.30;68.00;;;;;;5038857;28;20530;-72
2023/09/13 14:29:14;;;;;;;3.00;2.70;;;24.30;68.00;;;;;;5032746;28;20474;-73
2023/09/13 14:32:03;;;;;;;3.00;2.70;;;24.30;68.00;;;;;;5032724;28;20471;-72
2023/09/13 14:34:55;;;;;;;3.00;2.70;;;24.30;68.00;;;;;;5038646;28;20789;-71
2023/09/13 14:37:42;;;;;;;3.00;2.70;;;24.40;68.10;;;;;;5028623;28;20419;-68
2023/09/13 14:40:29;;;;;;;3.40;3.10;;;24.30;68.00;;;;;;5043525;28;20472;-69
2023/09/13 14:43:16;;;;;;;3.03;2.73;;;24.30;68.00;;;;;;5037579;28;20600;-68
2023/09/13 14:46:04;;;;;;;3.37;2.93;;;24.30;68.00;;;;;;5027256;28;20645;-72
2023/09/13 14:48:52;;;;;;;3.20;3.00;;;24.30;68.00;;;;;;5030857;28;20459;-73
2023/09/13 14:51:41;;;;;;;3.33;3.03;;;24.30;68.00;;;;;;5033148;28;20469;-72
2023/09/13 14:54:28;;;;;;;3.07;2.80;;;24.30;68.00;;;;;;5033861;28;20805;-67
2023/09/13 14:57:15;;;;;;;2.83;2.60;;;24.30;68.00;;;;;;5027211;28;20613;-67
2023/09/13 15:00:04;;;;;;;2.60;2.40;;;24.30;68.10;;;;;;5031988;28;20454;-68
2023/09/13 15:02:52;;;;;;;2.73;2.47;;;24.30;68.00;;;;;;5034543;28;20761;-69
2023/09/13 15:05:39;;;;;;;2.80;2.30;;;24.30;68.10;;;;;;5033505;28;20434;-68
2023/09/13 15:08:27;;;;;;;3.70;2.37;;;24.30;68.10;;;;;;5030851;28;20868;-69
2023/09/13 15:11:14;;;;;;;2.60;2.20;;;24.30;68.00;;;;;;5027384;28;20541;-70
2023/09/13 15:14:02;;;;;;;2.50;2.30;;;24.30;68.00;;;;;;5032969;28;20815;-68
2023/09/13 15:16:51;;;;;;;4.17;2.13;;;24.30;68.00;;;;;;5026410;28;20549;-67
2023/09/13 15:19:38;;;;;;;2.33;2.13;;;24.30;68.00;;;;;;5028534;28;20515;-69
2023/09/13 15:22:25;;;;;;;2.50;2.23;;;24.30;68.00;;;;;;5032815;28;20570;-68
2023/09/13 15:25:16;;;;;;;2.90;2.30;;;24.30;68.00;;;;;;5036961;28;20787;-68
2023/09/13 15:28:03;;;;;;;2.47;2.27;;;24.30;68.00;;;;;;5038557;28;20481;-68
2023/09/13 15:30:51;;;;;;;2.90;2.60;;;24.30;68.70;;;;;;5031741;28;20612;-68
2023/09/13 15:33:38;;;;;;;2.40;2.15;;;24.30;68.00;;;;;;5031858;28;20832;-68
2023/09/13 15:36:25;;;;;;;4.57;2.03;;;24.30;68.00;;;;;;5030583;28;20605;-69
2023/09/13 15:39:12;;;;;;;2.20;1.93;;;24.30;68.10;;;;;;5027393;28;20526;-68
2023/09/13 15:42:02;;;;;;;3.20;1.80;;;24.30;68.00;;;;;;5032494;28;20464;-68
2023/09/13 15:44:48;;;;;;;2.00;1.80;;;24.20;67.90;;;;;;5044767;28;20215;-68
2023/09/13 15:47:36;;;;;;;2.40;1.53;;;24.20;67.90;;;;;;5026805;28;20795;-69
2023/09/13 15:50:24;;;;;;;2.43;1.87;;;24.20;67.90;;;;;;5035363;28;20463;-68
2023/09/13 15:53:11;;;;;;;2.33;1.70;;;24.20;68.00;;;;;;5038655;28;20923;-68
2023/09/13 15:55:58;;;;;;;2.00;1.80;;;24.30;68.10;;;;;;5037434;28;20458;-73
2023/09/13 15:58:46;;;;;;;2.30;2.10;;;24.30;68.00;;;;;;5028278;28;21010;-73
2023/09/13 16:01:33;;;;;;;3.07;1.77;;;24.30;68.00;;;;;;5034563;28;20478;-73
2023/09/13 16:04:21;;;;;;;2.27;2.07;;;24.30;68.00;;;;;;5031984;28;20586;-73
2023/09/13 16:07:08;;;;;;;2.27;1.67;;;24.30;68.00;;;;;;5034631;28;20462;-73
2023/09/13 16:09:54;;;;;;;1.90;1.50;;;24.30;68.00;;;;;;5031814;28;20498;-73
2023/09/13 16:12:42;;;;;;;2.37;1.80;;;24.30;68.00;;;;;;5032531;28;20467;-73
2023/09/13 16:15:30;;;;;;;2.87;2.37;;;24.30;68.00;;;;;;5037532;28;20469;-73
2023/09/13 16:18:17;;;;;;;1.70;1.60;;;24.30;68.00;;;;;;5035472;28;21120;-68
2023/09/13 16:21:04;;;;;;;2.43;2.23;;;24.20;69.20;;;;;;5040845;28;20458;-67
2023/09/13 16:23:52;;;;;;;2.20;1.90;;;24.30;68.00;;;;;;5035283;28;20799;-68
2023/09/13 16:26:39;;;;;;;2.20;1.80;;;24.30;68.00;;;;;;5030336;28;20467;-67
2023/09/13 16:29:27;;;;;;;2.80;2.00;;;24.30;68.00;;;;;;5040359;28;20551;-68
2023/09/13 16:32:17;;;;;;;2.43;2.10;;;24.30;68.10;;;;;;5031364;28;20538;-67
2023/09/13 16:35:05;;;;;;;2.40;1.90;;;24.30;68.00;;;;;;5025670;28;20448;-68
2023/09/13 16:37:52;;;;;;;1.97;1.77;;;24.30;68.00;;;;;;5027041;28;20471;-67
2023/09/13 16:40:39;;;;;;;2.10;1.90;;;24.20;67.90;;;;;;5040527;28;20541;-68
2023/09/13 16:43:26;;;;;;;2.47;1.97;;;24.30;68.00;;;;;;5040297;28;20449;-69
2023/09/13 16:46:13;;;;;;;2.87;1.80;;;24.30;68.00;;;;;;5025764;28;20467;-68
2023/09/13 16:49:02;;;;;;;1.70;1.60;;;24.30;68.00;;;;;;5028421;28;21001;-68
2023/09/13 16:51:49;;;;;;;2.87;1.80;;;24.20;68.00;;;;;;5034248;28;20632;-68
2023/09/13 16:54:38;;;;;;;1.80;1.50;;;24.20;67.90;;;;;;5031706;28;20534;-67
2023/09/13 16:57:26;;;;;;;1.80;1.57;;;24.20;67.90;;;;;;5030072;28;20887;-68
2023/09/13 17:00:13;;;;;;;4.57;1.57;;;24.20;67.80;;;;;;5039822;28;20488;-68
2023/09/13 17:03:01;;;;;;;2.27;1.67;;;24.20;67.90;;;;;;5038976;28;20469;-68
2023/09/13 17:05:52;;;;;;;3.33;2.00;;;24.20;67.80;;;;;;5031377;28;20621;-68
2023/09/13 17:08:40;;;;;;;1.77;1.53;;;24.20;67.80;;;;;;5034182;28;21121;-68
2023/09/13 17:11:27;;;;;;;1.90;1.60;;;24.20;67.90;;;;;;5032501;28;20470;-68
2023/09/13 17:14:14;;;;;;;3.20;1.70;;;24.20;67.80;;;;;;5029911;28;22011;-68
2023/09/13 17:17:03;;;;;;;2.10;1.90;;;24.20;68.00;;;;;;5026044;28;20614;-69
2023/09/13 17:19:50;;;;;;;2.07;1.63;;;24.20;67.80;;;;;;5034940;28;20967;-68
2023/09/13 17:22:38;;;;;;;2.40;1.40;;;24.20;67.80;;;;;;5025920;28;20443;-67
2023/09/13 17:25:25;;;;;;;1.97;1.60;;;24.20;67.90;;;;;;5029256;28;20459;-69
2023/09/13 17:28:13;;;;;;;1.93;1.70;;;24.20;67.90;;;;;;5027842;28;20470;-68
2023/09/13 17:30:59;;;;;;;1.90;1.70;;;24.20;67.70;;;;;;5043915;28;20828;-67
2023/09/13 17:33:47;;;;;;;1.77;1.33;;;24.20;67.80;;;;;;5025023;28;20963;-69
2023/09/13 17:36:34;;;;;;;2.17;1.80;;;24.20;67.70;;;;;;5035647;28;21055;-68
2023/09/13 17:39:29;;;;;;;2.70;1.77;;;24.20;67.50;;;;;;5031165;28;20990;-68
2023/09/13 17:42:15;;;;;;;1.50;1.30;;;24.20;67.70;;;;;;5027185;28;20560;-69
2023/09/13 17:45:03;;;;;;;2.87;2.00;;;24.20;67.70;;;;;;5031619;28;20431;-68
2023/09/13 17:47:50;;;;;;;1.30;1.10;;;24.20;67.90;;;;;;5041974;28;20442;-67
2023/09/13 17:50:37;;;;;;;3.47;1.70;;;24.20;67.80;;;;;;5025848;28;20490;-68
2023/09/13 17:53:23;;;;;;;3.23;1.60;;;24.20;67.90;;;;;;5040183;28;20439;-68
2023/09/13 17:56:12;;;;;;;2.40;2.00;;;24.20;67.80;;;;;;5030348;28;20845;-69
2023/09/13 17:58:59;;;;;;;1.40;1.30;;;24.20;67.50;;;;;;5024636;28;20995;-69
2023/09/13 18:01:46;;;;;;;1.70;1.50;;;24.20;67.50;;;;;;5034906;28;20828;-73
2023/09/13 18:04:33;;;;;;;1.77;1.57;;;24.20;67.40;;;;;;5025591;28;20986;-72
2023/09/13 18:07:20;;;;;;;1.87;1.50;;;24.20;67.40;;;;;;5034246;28;20989;-74
2023/09/13 18:10:08;;;;;;;3.13;1.40;;;24.20;67.60;;;;;;5030312;28;20451;-73
2023/09/13 18:12:57;;;;;;;1.60;1.23;;;24.20;67.50;;;;;;5024563;28;20494;-74
2023/09/13 18:15:45;;;;;;;1.77;1.40;;;24.20;67.50;;;;;;5031636;28;20486;-73
2023/09/13 18:18:32;;;;;;;1.70;1.47;;;24.20;67.60;;;;;;5028100;28;20483;-72
2023/09/13 18:21:19;;;;;;;1.77;1.43;;;24.20;67.70;;;;;;5037040;28;20470;-73
2023/09/13 18:24:06;;;;;;;1.93;1.33;;;24.20;67.70;;;;;;5026986;28;20443;-73
2023/09/13 18:26:54;;;;;;;2.33;1.50;;;24.10;67.70;;;;;;5029963;28;20470;-73
2023/09/13 18:29:43;;;;;;;2.10;1.23;;;24.20;67.90;;;;;;5030462;28;20514;-73
2023/09/13 18:32:30;;;;;;;2.23;1.73;;;24.10;67.80;;;;;;5029931;28;20553;-73
2023/09/13 18:35:17;;;;;;;3.50;2.07;;;24.10;67.80;;;;;;5037038;28;20665;-73
2023/09/13 18:38:04;;;;;;;1.30;1.20;;;24.10;67.80;;;;;;5039592;28;20520;-73
2023/09/13 18:40:51;;;;;;;1.40;1.23;;;24.10;67.80;;;;;;5035088;28;20540;-73
2023/09/13 18:43:38;;;;;;;2.00;1.50;;;24.10;67.80;;;;;;5034365;28;20551;-73
2023/09/13 18:46:27;;;;;;;2.00;1.50;;;24.10;67.80;;;;;;5040425;28;20475;-73
2023/09/13 18:49:13;;;;;;;1.77;1.10;;;24.10;67.90;;;;;;5027861;28;20538;-73
2023/09/13 18:52:00;;;;;;;1.60;1.50;;;24.10;67.80;;;;;;5028955;28;20542;-73
2023/09/13 18:54:47;;;;;;;1.53;1.43;;;24.10;67.80;;;;;;5028032;28;20966;-73
2023/09/13 18:57:35;;;;;;;1.50;1.23;;;24.10;67.80;;;;;;5030075;28;20446;-74
2023/09/13 19:00:22;;;;;;;2.60;2.00;;;24.10;67.80;;;;;;5032799;28;20994;-73
2023/09/13 19:03:10;;;;;;;1.60;1.50;;;24.10;67.80;;;;;;5042448;28;20565;-73
2023/09/13 19:05:59;;;;;;;1.50;1.40;;;24.10;67.80;;;;;;5034341;28;20552;-73
2023/09/13 19:08:50;;;;;;;3.13;1.40;;;24.10;67.80;;;;;;5033076;28;20537;-72
2023/09/13 19:11:37;;;;;;;1.57;1.40;;;24.10;67.80;;;;;;5033508;28;20643;-73
2023/09/13 19:14:24;;;;;;;3.23;1.63;;;24.10;67.90;;;;;;5033748;28;20803;-73
2023/09/13 19:17:12;;;;;;;2.00;1.53;;;24.10;67.80;;;;;;5039246;28;21000;-74
2023/09/13 19:20:00;;;;;;;1.57;1.10;;;24.10;67.80;;;;;;5042309;28;20454;-73
2023/09/13 19:22:47;;;;;;;2.20;1.53;;;24.10;67.90;;;;;;5033288;28;20916;-73
2023/09/13 19:25:34;;;;;;;2.47;1.73;;;24.10;67.80;;;;;;5037025;28;20492;-73
2023/09/13 19:28:22;;;;;;;1.70;1.13;;;24.10;67.90;;;;;;5034673;28;20486;-73
2023/09/13 19:31:09;;;;;;;2.87;1.23;;;24.10;67.80;;;;;;5025820;28;20608;-74
2023/09/13 19:33:58;;;;;;;1.63;1.53;;;24.10;67.80;;;;;;5038248;28;20443;-74
2023/09/13 19:36:46;;;;;;;2.13;1.50;;;24.10;67.80;;;;;;5026480;28;20495;-74
2023/09/13 19:39:34;;;;;;;1.83;1.47;;;24.10;67.80;;;;;;5033666;28;20914;-74
2023/09/13 19:42:21;;;;;;;2.20;1.73;;;24.00;67.70;;;;;;5032927;28;20466;-74
2023/09/13 19:45:09;;;;;;;2.23;1.50;;;24.00;67.70;;;;;;5039255;28;20474;-74
2023/09/13 19:47:55;;;;;;;2.47;1.50;;;24.10;67.80;;;;;;5034743;28;20985;-72
2023/09/13 19:50:49;;;;;;;1.53;1.37;;;24.10;67.80;;;;;;5032735;28;20494;-73
2023/09/13 19:53:37;;;;;;;1.40;1.20;;;24.00;67.70;;;;;;5032536;28;20522;-74
2023/09/13 19:56:24;;;;;;;1.63;1.37;;;24.00;67.70;;;;;;5027984;28;20642;-73
2023/09/13 19:59:11;;;;;;;1.30;1.10;;;24.00;67.70;;;;;;5041530;28;21002;-73
2023/09/13 20:01:59;;;;;;;1.70;1.23;;;24.00;67.70;;;;;;5028245;28;20850;-74
2023/09/13 20:04:46;;;;;;;2.50;1.40;;;24.00;67.70;;;;;;5032322;28;20533;-72
2023/09/13 20:07:34;;;;;;;1.53;1.10;;;24.00;68.90;;;;;;5034252;28;20434;-73
2023/09/13 20:10:23;;;;;;;2.03;1.30;;;24.00;67.70;;;;;;5026370;28;20688;-74